EGPD - Aberdeen / Dyce
Distance from station: E 5mi, 14km
Updated: 04/24/2018 7:20am
Clear
Clear
 Wind from WSW
Wind: WSW 9 mph , 15 km/h
Temperature: 57°F , 14°C
Dew Point: 34°F , 1°C
Humidity: 41%
Barometer: 29.62 inHg , 1003 hPa
Clouds: Clear
Visibility: 6 miles , 10 km
2018/04/24 14:20 EGPD 241420Z AUTO 24008KT 200V320 9999 NCD 14/01 Q1003 NOSIG